Lyneham, United Kingdom
Current Conditions -  °F | °C
As of 9:04 AM on Wednesday 28 Jan 2015 (Local Time) from EGVA Reporting Station
Light Rain Light Rain  
Wind Chill: 42°   Ceiling: 500
Heat Index: 48°   Visibility: 4mi
Dew Point: 48°   Wind: 18mph
Humidity: 100%   Direction: 240°WSW
Pressure: 29.57"   Gusts: NA
Location:  51.5°N, 1.98°W
Report Text: EGVA 280904Z AUTO 24016KT 6000 -RA BR BKN005 OVC017 09/09 A2957 RMK AO2 $
Loading
Personal Weather Stations






























Interactive Weather Map New forecast layout! Learn more

10-Day Weather Forecast

Advertisements
Track Severe Weather on mobile